createdAt,value
2019-03-17T00:05:31.944Z,66.32
2019-03-17T00:08:03.179Z,66.07
2019-03-17T00:10:34.420Z,66.05
2019-03-17T00:13:05.731Z,66.26
2019-03-17T00:15:37.591Z,66.14
2019-03-17T00:18:09.068Z,66.15
2019-03-17T00:20:40.277Z,66.21
2019-03-17T00:23:11.592Z,66.28
2019-03-17T00:25:42.780Z,66.08
2019-03-17T00:28:14.047Z,66.02
2019-03-17T00:30:45.307Z,65.90
2019-03-17T00:33:16.556Z,65.87
2019-03-17T00:35:47.822Z,66.44
2019-03-17T00:38:19.161Z,66.52
2019-03-17T00:40:50.575Z,66.27
2019-03-17T00:43:21.854Z,65.92
2019-03-17T00:45:53.134Z,65.96
2019-03-17T00:48:24.479Z,65.89
2019-03-17T00:50:55.766Z,65.77
2019-03-17T00:53:26.967Z,65.75
2019-03-17T00:55:58.184Z,65.50
2019-03-17T00:58:29.438Z,65.83
2019-03-17T01:01:00.884Z,65.48
2019-03-17T01:03:32.191Z,65.36
2019-03-17T01:06:03.681Z,64.70
2019-03-17T01:08:35.006Z,64.87
2019-03-17T01:11:06.399Z,64.64
2019-03-17T01:13:37.607Z,65.04
2019-03-17T01:16:08.869Z,65.52
2019-03-17T01:18:40.028Z,65.98
2019-03-17T01:21:13.478Z,66.56
2019-03-17T01:24:22.708Z,67.21
2019-03-17T01:29:36.308Z,68.06
2019-03-17T01:32:07.526Z,68.50
2019-03-17T01:34:38.666Z,68.89
2019-03-17T01:37:09.929Z,69.26
2019-03-17T01:39:41.247Z,68.97
2019-03-17T01:42:12.624Z,69.32
2019-03-17T01:44:43.802Z,68.32
2019-03-17T01:47:14.995Z,68.50
2019-03-17T01:49:46.142Z,68.44
2019-03-17T01:52:17.389Z,68.06
2019-03-17T01:54:48.582Z,67.31
2019-03-17T01:57:19.853Z,66.87
2019-03-17T01:59:51.014Z,66.54
2019-03-17T02:02:22.287Z,66.32
2019-03-17T02:04:53.555Z,66.15
2019-03-17T02:07:24.853Z,66.07
2019-03-17T02:09:56.019Z,65.79
2019-03-17T02:12:27.281Z,65.66
2019-03-17T02:14:58.574Z,65.78
2019-03-17T02:17:29.880Z,65.70
2019-03-17T02:20:01.138Z,65.74
2019-03-17T02:22:32.372Z,65.79
2019-03-17T02:25:03.618Z,65.65
2019-03-17T02:27:34.860Z,65.64
2019-03-17T02:30:06.421Z,65.56
2019-03-17T02:32:37.702Z,65.86
2019-03-17T02:35:08.813Z,66.33
2019-03-17T02:37:40.020Z,66.66
2019-03-17T02:40:11.423Z,66.87
2019-03-17T02:42:42.677Z,67.10
2019-03-17T02:45:13.977Z,67.56
2019-03-17T02:47:45.217Z,67.68
2019-03-17T02:50:16.458Z,68.11
2019-03-17T02:52:47.681Z,68.06
2019-03-17T02:55:37.954Z,67.96
2019-03-17T02:58:28.149Z,67.51
2019-03-17T03:00:59.349Z,67.22
2019-03-17T03:03:30.540Z,67.09
2019-03-17T03:06:01.828Z,67.70
2019-03-17T03:08:33.065Z,67.19
2019-03-17T03:11:04.342Z,67.22
2019-03-17T03:13:35.519Z,67.32
2019-03-17T03:16:06.928Z,67.37
2019-03-17T03:18:38.131Z,66.86
2019-03-17T03:21:09.370Z,66.87
2019-03-17T03:23:40.648Z,66.83
2019-03-17T03:26:11.789Z,66.54
2019-03-17T03:28:42.971Z,66.51
2019-03-17T03:31:14.213Z,66.34
2019-03-17T03:33:45.451Z,66.50
2019-03-17T03:36:16.676Z,65.99
2019-03-17T03:38:47.980Z,65.46
2019-03-17T03:41:19.213Z,66.33
2019-03-17T03:43:57.880Z,66.64
2019-03-17T03:46:29.069Z,65.82
2019-03-17T03:49:00.365Z,66.06
2019-03-17T03:51:31.631Z,66.67
2019-03-17T03:54:02.902Z,66.26
2019-03-17T03:56:34.128Z,66.65
2019-03-17T03:59:05.400Z,66.67
2019-03-17T04:01:36.768Z,67.28
2019-03-17T04:04:08.025Z,68.01
2019-03-17T04:06:39.413Z,68.59
2019-03-17T04:09:10.770Z,68.86
2019-03-17T04:11:41.959Z,69.64
2019-03-17T04:14:13.850Z,70.51
2019-03-17T04:16:45.156Z,71.79
2019-03-17T04:19:16.487Z,72.29
2019-03-17T04:21:47.727Z,72.85
2019-03-17T04:24:38.048Z,73.38
2019-03-17T04:27:28.310Z,74.37
2019-03-17T04:29:59.436Z,75.88
2019-03-17T04:32:30.715Z,77.13
2019-03-17T04:35:01.987Z,77.82
2019-03-17T04:37:33.355Z,78.11
2019-03-17T04:40:04.734Z,78.46
2019-03-17T04:42:36.136Z,78.44
2019-03-17T04:45:07.686Z,78.92
2019-03-17T04:47:38.978Z,79.64
2019-03-17T04:50:10.665Z,79.96
2019-03-17T04:52:42.028Z,80.53
2019-03-17T04:55:13.425Z,81.47
2019-03-17T04:57:44.741Z,81.57
2019-03-17T05:00:16.310Z,81.31
2019-03-17T05:02:47.666Z,80.73
2019-03-17T05:05:19.050Z,81.54
2019-03-17T05:07:50.376Z,80.96
2019-03-17T05:10:22.892Z,80.78
2019-03-17T05:12:54.221Z,81.00
2019-03-17T05:15:25.688Z,81.33
2019-03-17T05:17:57.110Z,81.74
2019-03-17T05:20:28.411Z,81.78
2019-03-17T05:22:59.776Z,82.98
2019-03-17T05:25:31.085Z,82.93
2019-03-17T05:28:02.477Z,82.30
2019-03-17T05:30:33.681Z,82.63
2019-03-17T05:33:05.172Z,83.15
2019-03-17T05:35:36.426Z,83.51
2019-03-17T05:38:07.763Z,84.34
2019-03-17T05:40:39.184Z,84.49
2019-03-17T05:43:10.547Z,84.76
2019-03-17T05:45:41.926Z,84.68
2019-03-17T05:48:13.284Z,85.25
2019-03-17T05:51:01.754Z,85.54
2019-03-17T05:53:33.191Z,85.77
2019-03-17T05:56:04.694Z,86.09
2019-03-17T05:58:36.065Z,86.31
2019-03-17T06:01:07.400Z,86.67
2019-03-17T06:03:38.852Z,86.84
2019-03-17T06:06:10.158Z,86.91
2019-03-17T06:08:41.503Z,86.89
2019-03-17T06:11:13.118Z,86.93
2019-03-17T06:13:44.563Z,86.88
2019-03-17T06:16:15.968Z,86.87
2019-03-17T06:18:47.522Z,86.51
2019-03-17T06:21:18.980Z,86.85
2019-03-17T06:23:50.530Z,86.76
2019-03-17T06:26:21.924Z,86.82
2019-03-17T06:28:53.299Z,86.68
2019-03-17T06:31:24.872Z,86.68
2019-03-17T06:33:56.324Z,86.92
2019-03-17T06:36:27.670Z,86.73
2019-03-17T06:38:59.034Z,86.92
2019-03-17T06:41:30.281Z,86.75
2019-03-17T06:44:01.621Z,86.89
2019-03-17T06:46:33.139Z,86.85
2019-03-17T06:49:04.845Z,86.86
2019-03-17T06:51:36.193Z,86.48
2019-03-17T06:54:07.692Z,87.03
2019-03-17T06:56:39.043Z,86.87
2019-03-17T06:59:10.367Z,87.10
2019-03-17T07:01:41.716Z,87.32
2019-03-17T07:04:13.092Z,87.12
2019-03-17T07:06:44.567Z,87.58
2019-03-17T07:09:16.215Z,87.28
2019-03-17T07:11:47.570Z,86.96
2019-03-17T07:14:19.257Z,87.23
2019-03-17T07:16:50.780Z,86.72
2019-03-17T07:19:22.189Z,86.82
2019-03-17T07:21:54.655Z,85.96
2019-03-17T07:24:26.261Z,86.11
2019-03-17T07:26:57.575Z,84.61
2019-03-17T07:29:28.894Z,84.89
2019-03-17T07:32:00.301Z,85.13
2019-03-17T07:34:31.740Z,85.49
2019-03-17T07:37:03.112Z,85.10
2019-03-17T07:39:34.406Z,85.38
2019-03-17T07:42:05.920Z,85.29
2019-03-17T07:44:37.236Z,84.93
2019-03-17T07:47:08.559Z,85.08
2019-03-17T07:49:39.896Z,85.81
2019-03-17T07:52:11.228Z,86.04
2019-03-17T07:54:42.568Z,86.19
2019-03-17T07:57:13.855Z,85.41
2019-03-17T07:59:45.113Z,84.53
2019-03-17T08:02:20.635Z,84.20
2019-03-17T08:04:51.861Z,83.92
2019-03-17T08:07:23.146Z,83.64
2019-03-17T08:09:54.470Z,84.11
2019-03-17T08:12:25.765Z,83.15
2019-03-17T08:14:57.862Z,82.52
2019-03-17T08:17:29.213Z,83.00
2019-03-17T08:20:00.420Z,81.96
2019-03-17T08:22:31.743Z,81.19
2019-03-17T08:25:02.992Z,80.53
2019-03-17T08:27:34.219Z,81.40
2019-03-17T08:30:06.082Z,80.98
2019-03-17T08:32:37.305Z,80.35
2019-03-17T08:35:08.978Z,79.41
2019-03-17T08:37:40.264Z,80.02
2019-03-17T08:40:13.467Z,81.32
2019-03-17T08:42:44.686Z,79.01
2019-03-17T08:45:16.063Z,79.57
2019-03-17T08:47:57.374Z,79.48
2019-03-17T08:50:20.145Z,79.73
2019-03-17T08:52:51.544Z,78.95
2019-03-17T08:55:22.801Z,78.87
2019-03-17T08:57:54.018Z,77.60
2019-03-17T09:00:25.411Z,76.80
2019-03-17T09:02:57.058Z,78.25
2019-03-17T09:05:28.504Z,79.13
2019-03-17T09:07:59.956Z,79.65
2019-03-17T09:10:31.155Z,77.86
2019-03-17T09:13:04.336Z,79.50
2019-03-17T09:15:35.477Z,79.38
2019-03-17T09:18:09.044Z,78.58
2019-03-17T09:20:40.346Z,78.00
2019-03-17T09:23:11.513Z,76.99
2019-03-17T09:25:42.810Z,75.45
2019-03-17T09:28:14.018Z,75.13
2019-03-17T09:30:45.291Z,76.80
2019-03-17T09:33:16.433Z,76.40
2019-03-17T09:35:47.718Z,72.90
2019-03-17T09:38:19.013Z,75.92
2019-03-17T09:40:50.206Z,75.86
2019-03-17T09:43:21.490Z,77.07
2019-03-17T09:45:52.672Z,75.79
2019-03-17T09:48:23.795Z,77.04
2019-03-17T09:50:54.999Z,76.04
2019-03-17T09:53:28.472Z,76.61
2019-03-17T09:55:58.970Z,75.38
2019-03-17T09:58:30.097Z,78.00
2019-03-17T10:01:01.355Z,76.84
2019-03-17T10:03:32.634Z,76.69
2019-03-17T10:06:04.002Z,74.72
2019-03-17T10:08:35.135Z,74.87
2019-03-17T10:11:06.308Z,74.85
2019-03-17T10:13:37.580Z,72.76
2019-03-17T10:16:08.806Z,73.51
2019-03-17T10:18:40.098Z,72.91
2019-03-17T10:21:11.325Z,74.30
2019-03-17T10:23:42.617Z,75.05
2019-03-17T10:26:13.875Z,74.27
2019-03-17T10:28:48.895Z,72.80
2019-03-17T10:31:20.095Z,71.92
2019-03-17T10:33:53.728Z,71.68
2019-03-17T10:36:24.958Z,70.55
2019-03-17T10:38:56.120Z,70.02
2019-03-17T10:41:27.295Z,69.66
2019-03-17T10:43:58.435Z,69.51
2019-03-17T10:46:29.688Z,68.25
2019-03-17T10:49:00.949Z,67.46
2019-03-17T10:51:32.162Z,68.49
2019-03-17T10:54:03.408Z,69.09
2019-03-17T10:56:34.688Z,68.31
2019-03-17T10:59:07.299Z,68.89
2019-03-17T11:01:38.514Z,69.08
2019-03-17T11:04:18.890Z,68.62
2019-03-17T11:06:50.160Z,67.49
2019-03-17T11:09:25.395Z,68.77
2019-03-17T11:11:54.202Z,66.29
2019-03-17T11:14:25.443Z,67.54
2019-03-17T11:16:56.668Z,66.25
2019-03-17T11:19:27.825Z,65.85
2019-03-17T11:21:59.054Z,65.43
2019-03-17T11:24:30.512Z,64.50
2019-03-17T11:27:01.617Z,64.14
2019-03-17T11:29:32.825Z,65.68
2019-03-17T11:32:06.458Z,62.22
2019-03-17T11:34:36.976Z,62.71
2019-03-17T11:37:08.178Z,62.24
2019-03-17T11:39:39.324Z,61.75
2019-03-17T11:42:10.591Z,60.44
2019-03-17T11:44:41.748Z,61.23
2019-03-17T11:47:12.920Z,61.73
2019-03-17T11:50:22.050Z,62.91
2019-03-17T11:53:12.455Z,59.59
2019-03-17T11:58:26.541Z,58.24
2019-03-17T12:00:57.841Z,57.43
2019-03-17T12:03:29.056Z,57.66
2019-03-17T12:06:00.345Z,57.79
2019-03-17T12:08:31.462Z,57.45
2019-03-17T12:11:02.667Z,57.18
2019-03-17T12:13:33.919Z,57.60
2019-03-17T12:16:05.135Z,57.84
2019-03-17T12:18:36.298Z,57.34
2019-03-17T12:21:07.523Z,58.26
2019-03-17T12:23:38.777Z,56.08
2019-03-17T12:26:10.032Z,55.87
2019-03-17T12:28:41.347Z,57.02
2019-03-17T12:31:12.767Z,56.17
2019-03-17T12:33:44.092Z,56.70
2019-03-17T12:36:15.370Z,56.73
2019-03-17T12:38:46.731Z,56.62
2019-03-17T12:41:17.916Z,55.59
2019-03-17T12:43:49.135Z,56.01
2019-03-17T12:46:29.465Z,56.24
2019-03-17T12:49:00.739Z,55.18
2019-03-17T12:51:32.052Z,56.37
2019-03-17T12:54:03.489Z,56.98
2019-03-17T12:56:34.703Z,56.77
2019-03-17T12:59:05.960Z,56.98
2019-03-17T13:01:37.256Z,63.51
2019-03-17T13:04:14.585Z,66.42
2019-03-17T13:06:45.877Z,66.56
2019-03-17T13:09:17.141Z,69.47
2019-03-17T13:11:51.666Z,68.83
2019-03-17T13:14:22.883Z,69.87
2019-03-17T13:16:55.663Z,67.67
2019-03-17T13:19:49.575Z,69.10
2019-03-17T13:22:23.930Z,71.80
2019-03-17T13:24:55.143Z,71.85
2019-03-17T13:27:26.330Z,71.78
2019-03-17T13:29:57.907Z,72.89
2019-03-17T13:32:29.244Z,72.34
2019-03-17T13:35:00.435Z,67.50
2019-03-17T13:37:31.742Z,63.17
2019-03-17T13:40:02.903Z,64.09
2019-03-17T13:42:34.143Z,63.49
2019-03-17T13:45:05.752Z,63.23
2019-03-17T13:47:38.367Z,63.08
2019-03-17T13:50:12.180Z,62.96
2019-03-17T13:52:43.741Z,63.15
2019-03-17T13:55:15.142Z,62.75
2019-03-17T13:57:46.651Z,62.22
2019-03-17T14:00:18.058Z,65.23
2019-03-17T14:02:52.433Z,63.00
2019-03-17T14:05:23.938Z,63.25
2019-03-17T14:07:55.179Z,61.98
2019-03-17T14:10:40.506Z,63.93
2019-03-17T14:13:03.583Z,64.62
2019-03-17T14:15:34.990Z,65.55
2019-03-17T14:18:06.256Z,65.25
2019-03-17T14:20:37.668Z,66.73
2019-03-17T14:23:08.948Z,66.22
2019-03-17T14:25:40.388Z,63.41
2019-03-17T14:28:13.242Z,62.26
2019-03-17T14:30:44.472Z,62.38
2019-03-17T14:33:15.740Z,61.19
2019-03-17T14:35:46.919Z,60.12
2019-03-17T14:38:18.189Z,58.42
2019-03-17T14:40:53.872Z,58.33
2019-03-17T14:43:25.623Z,57.92
2019-03-17T14:45:57.083Z,57.12
2019-03-17T14:48:47.326Z,59.54
2019-03-17T14:51:18.482Z,59.61
2019-03-17T14:53:49.751Z,57.78
2019-03-17T14:56:20.991Z,56.67
2019-03-17T14:58:52.192Z,57.84
2019-03-17T15:01:23.399Z,58.30
2019-03-17T15:03:54.845Z,58.86
2019-03-17T15:06:26.134Z,58.27
2019-03-17T15:08:59.963Z,56.93
2019-03-17T15:11:31.199Z,56.21
2019-03-17T15:14:06.499Z,56.03
2019-03-17T15:16:37.730Z,57.75
2019-03-17T15:19:08.970Z,58.35
2019-03-17T15:21:40.207Z,56.60
2019-03-17T15:24:11.460Z,58.09
2019-03-17T15:26:42.704Z,59.67
2019-03-17T15:29:13.839Z,58.57
2019-03-17T15:31:45.091Z,58.93
2019-03-17T15:34:16.229Z,58.68
2019-03-17T15:36:48.315Z,58.75
2019-03-17T15:39:19.499Z,59.99
2019-03-17T15:41:50.865Z,59.06
2019-03-17T15:44:22.053Z,59.17
2019-03-17T15:46:53.493Z,61.45
2019-03-17T15:49:24.714Z,60.81
2019-03-17T15:51:56.933Z,60.60
2019-03-17T15:54:28.145Z,60.10
2019-03-17T15:56:59.349Z,60.25
2019-03-17T15:59:30.552Z,60.06
2019-03-17T16:02:01.728Z,60.16
2019-03-17T16:04:32.995Z,59.55
2019-03-17T16:07:04.271Z,60.73
2019-03-17T16:09:42.765Z,59.08
2019-03-17T16:12:29.861Z,59.71
2019-03-17T16:15:02.841Z,59.39
2019-03-17T16:17:48.201Z,58.98
2019-03-17T16:20:25.489Z,57.93
2019-03-17T16:23:04.588Z,59.59
2019-03-17T16:25:55.663Z,61.18
2019-03-17T16:28:39.859Z,60.10
2019-03-17T16:31:34.250Z,60.96
2019-03-17T16:34:16.210Z,60.24
2019-03-17T16:37:04.170Z,60.88
2019-03-17T16:39:55.428Z,60.52
2019-03-17T16:42:46.098Z,61.13
2019-03-17T16:45:33.181Z,61.05
2019-03-17T16:48:20.407Z,60.99
2019-03-17T16:50:54.935Z,61.03
2019-03-17T16:53:34.897Z,62.04
2019-03-17T16:56:26.261Z,62.06
2019-03-17T16:58:59.147Z,62.17
2019-03-17T17:01:30.478Z,62.04
2019-03-17T17:04:01.750Z,62.54
2019-03-17T17:06:33.162Z,62.48
2019-03-17T17:09:06.887Z,62.95
2019-03-17T17:11:38.113Z,63.52
2019-03-17T17:14:09.658Z,63.23
2019-03-17T17:16:40.961Z,63.76
2019-03-17T17:19:15.238Z,64.66
2019-03-17T17:21:46.539Z,65.81
2019-03-17T17:24:17.833Z,66.25
2019-03-17T17:26:49.086Z,66.09
2019-03-17T17:29:20.581Z,67.16
2019-03-17T17:31:51.899Z,67.56
2019-03-17T17:34:23.203Z,67.20
2019-03-17T17:36:55.945Z,66.80
2019-03-17T17:39:27.473Z,65.93
2019-03-17T17:51:12.426Z,65.02
2019-03-17T17:53:45.291Z,64.11
2019-03-17T17:56:16.552Z,64.17
2019-03-17T17:58:47.809Z,63.60
2019-03-17T18:01:19.076Z,63.95
2019-03-17T18:03:51.894Z,63.28
2019-03-17T18:06:23.304Z,63.20
2019-03-17T18:08:54.577Z,63.27
2019-03-17T18:11:25.809Z,63.28
2019-03-17T18:13:57.017Z,62.96
2019-03-17T18:16:28.311Z,62.05
2019-03-17T18:18:59.585Z,61.89
2019-03-17T18:21:31.129Z,62.46
2019-03-17T18:24:03.700Z,62.59
2019-03-17T18:26:35.126Z,63.64
2019-03-17T18:29:06.394Z,64.46
2019-03-17T18:31:37.738Z,64.67
2019-03-17T18:34:09.137Z,64.93
2019-03-17T18:36:40.521Z,64.25
2019-03-17T18:39:11.832Z,63.65
2019-03-17T18:41:43.201Z,63.30
2019-03-17T18:44:15.873Z,62.21
2019-03-17T18:46:47.091Z,61.83
2019-03-17T18:49:18.366Z,61.70
2019-03-17T18:51:52.296Z,61.75
2019-03-17T18:54:23.541Z,61.41
2019-03-17T18:56:55.104Z,61.62
2019-03-17T18:59:28.022Z,63.13
2019-03-17T19:01:59.175Z,62.41
2019-03-17T19:04:30.459Z,62.48
2019-03-17T19:07:20.739Z,63.76
2019-03-17T19:09:52.454Z,63.88
2019-03-17T19:12:23.884Z,64.16
2019-03-17T19:14:56.945Z,64.19
2019-03-17T19:17:28.225Z,64.37
2019-03-17T19:19:59.505Z,65.85
2019-03-17T19:22:30.810Z,67.26
2019-03-17T19:25:02.129Z,67.98
2019-03-17T19:27:33.451Z,69.29
2019-03-17T19:30:05.291Z,69.97
2019-03-17T19:32:36.555Z,70.54
2019-03-17T19:35:08.241Z,71.18
2019-03-17T19:37:39.651Z,70.03
2019-03-17T19:40:12.550Z,69.71
2019-03-17T19:42:43.933Z,70.06
2019-03-17T19:45:15.328Z,70.72
2019-03-17T19:47:46.686Z,72.94
2019-03-17T19:50:17.216Z,72.42
2019-03-17T19:52:48.506Z,73.08
2019-03-17T19:55:19.817Z,73.56
2019-03-17T19:57:51.046Z,73.29
2019-03-17T20:00:22.381Z,73.56
2019-03-17T20:02:56.663Z,73.62
2019-03-17T20:05:27.970Z,74.06
2019-03-17T20:08:00.132Z,74.10
2019-03-17T20:10:34.143Z,74.86
2019-03-17T20:13:11.836Z,74.61
2019-03-17T20:15:39.508Z,74.46
2019-03-17T20:18:11.073Z,75.11
2019-03-17T20:20:42.335Z,75.82
2019-03-17T20:23:13.597Z,75.62
2019-03-17T20:25:44.764Z,76.44
2019-03-17T20:28:15.982Z,76.40
2019-03-17T20:30:47.149Z,76.67
2019-03-17T20:33:19.218Z,76.73
2019-03-17T20:35:55.588Z,77.53
2019-03-17T20:38:26.811Z,77.04
2019-03-17T20:40:58.027Z,76.88
2019-03-17T20:43:35.024Z,75.98
2019-03-17T20:46:02.186Z,76.14
2019-03-17T20:48:33.429Z,76.12
2019-03-17T20:51:07.210Z,76.16
2019-03-17T20:53:38.378Z,76.75
2019-03-17T20:56:09.683Z,77.00
2019-03-17T20:58:47.110Z,76.49
2019-03-17T21:01:18.336Z,76.99
2019-03-17T21:03:49.512Z,77.29
2019-03-17T21:06:20.784Z,77.43
2019-03-17T21:08:52.006Z,77.84
2019-03-17T21:11:23.263Z,78.13
2019-03-17T21:13:54.501Z,77.87
2019-03-17T21:16:25.730Z,78.04
2019-03-17T21:18:56.991Z,78.06
2019-03-17T21:21:28.252Z,78.51
2019-03-17T21:23:59.519Z,78.73
2019-03-17T21:26:30.773Z,78.84
2019-03-17T21:29:02.059Z,78.90
2019-03-17T21:31:33.331Z,78.01
2019-03-17T21:34:04.837Z,77.02
2019-03-17T21:36:36.055Z,76.77
2019-03-17T21:39:09.087Z,76.79
2019-03-17T21:41:40.265Z,76.16
2019-03-17T21:44:11.642Z,75.35
2019-03-17T21:46:42.937Z,75.32
2019-03-17T21:49:15.432Z,75.17
2019-03-17T21:51:46.633Z,74.90
2019-03-17T21:54:17.944Z,74.79
2019-03-17T21:56:49.192Z,74.42
2019-03-17T21:59:20.421Z,74.28
2019-03-17T22:01:53.664Z,74.48
2019-03-17T22:04:24.655Z,74.66
2019-03-17T22:06:55.994Z,75.08
2019-03-17T22:09:27.179Z,75.41
2019-03-17T22:11:58.407Z,76.04
2019-03-17T22:14:29.615Z,76.07
2019-03-17T22:17:00.883Z,76.60
2019-03-17T22:19:32.068Z,76.73
2019-03-17T22:22:03.437Z,77.18
2019-03-17T22:24:34.576Z,77.46
2019-03-17T22:27:05.744Z,77.78
2019-03-17T22:29:36.913Z,77.78
2019-03-17T22:32:08.204Z,78.05
2019-03-17T22:34:39.337Z,78.04
2019-03-17T22:37:10.511Z,78.29
2019-03-17T22:39:41.946Z,78.14
2019-03-17T22:42:13.192Z,78.58
2019-03-17T22:44:44.495Z,78.80
2019-03-17T22:47:15.651Z,78.63
2019-03-17T22:49:46.836Z,79.03
2019-03-17T22:52:18.053Z,79.16
2019-03-17T22:54:49.349Z,79.71
2019-03-17T22:57:20.654Z,79.04
2019-03-17T22:59:51.947Z,78.81
2019-03-17T23:02:31.941Z,77.95
2019-03-17T23:05:06.191Z,78.39
2019-03-17T23:07:39.779Z,78.40
2019-03-17T23:10:11.645Z,78.40
2019-03-17T23:12:42.952Z,78.90
2019-03-17T23:15:14.492Z,79.16
2019-03-17T23:17:45.706Z,78.80
2019-03-17T23:20:17.761Z,78.91
2019-03-17T23:22:50.687Z,78.90
2019-03-17T23:25:21.864Z,79.12
2019-03-17T23:27:53.129Z,78.81
2019-03-17T23:30:25.066Z,79.15
2019-03-17T23:32:56.793Z,79.27
2019-03-17T23:35:27.935Z,79.80
2019-03-17T23:37:59.200Z,80.19
2019-03-17T23:40:31.548Z,79.94
2019-03-17T23:43:02.835Z,80.33
2019-03-17T23:45:34.017Z,79.36
2019-03-17T23:48:05.212Z,79.42
2019-03-17T23:50:36.530Z,79.58
2019-03-17T23:53:07.775Z,79.47
2019-03-17T23:55:38.954Z,79.72
2019-03-17T23:58:10.222Z,79.95
